Time;durP1;ratioP1;P1;durP2;ratioP2;P2;SDS_P1;SDS_P2;PMS_P1;PMS_P2;Temp;Humidity;BMP_temperature;BMP_pressure;BME280_temperature;BME280_humidity;BME280_pressure;Samples;Min_cycle;Max_cycle;Signal;HPM_P1;HPM_P2
2021/01/09 00:01:41;;;;;;;;;;;;;;;;;;5046296;28;20293;-74
2021/01/09 00:04:07;;;;;;;;;;;;;;;;;;5039514;28;19982;-73
2021/01/09 00:06:33;;;;;;;;;;;;;;;;;;5046610;28;19933;-74
2021/01/09 00:08:59;;;;;;;;;;;;;;;;;;5043416;28;19925;-74
2021/01/09 00:11:25;;;;;;;;;;;;;;;;;;5045295;28;19925;-75
2021/01/09 00:13:51;;;;;;;;;;;;;;;;;;5039849;28;19925;-74
2021/01/09 00:16:16;;;;;;;;;;;;;;;;;;5042752;28;20324;-74
2021/01/09 00:18:42;;;;;;;;;;;;;;;;;;5041093;28;19932;-75
2021/01/09 00:21:08;;;;;;;;;;;;;;;;;;5043963;28;19978;-74
2021/01/09 00:23:34;;;;;;;;;;;;;;;;;;5046325;28;20382;-74
2021/01/09 00:26:02;;;;;;;;;;;;;;;;;;5042254;28;21235;-74
2021/01/09 00:28:28;;;;;;;;;;;;;;;;;;5061233;28;19928;-74
2021/01/09 00:30:54;;;;;;;;;;;;;;;;;;5045310;28;19925;-74
2021/01/09 00:33:20;;;;;;;;;;;;;;;;;;5044269;28;19933;-75
2021/01/09 00:35:46;;;;;;;;;;;;;;;;;;5046173;28;19932;-74
2021/01/09 00:38:11;;;;;;;;;;;;;;;;;;5044197;28;19924;-76
2021/01/09 00:40:37;;;;;;;;;;;;;;;;;;5061003;28;20393;-73
2021/01/09 00:43:03;;;;;;;;;;;;;;;;;;5062766;28;19932;-72
2021/01/09 00:45:29;;;;;;;;;;;;;;;;;;5051527;28;19932;-74
2021/01/09 00:47:55;;;;;;;;;;;;;;;;;;5043587;28;19925;-72
2021/01/09 00:50:21;;;;;;;;;;;;;;;;;;5040485;28;20400;-74
2021/01/09 00:52:47;;;;;;;;;;;;;;;;;;5044850;28;19925;-75
2021/01/09 00:55:13;;;;;;;;;;;;;;;;;;5044580;28;19925;-73
2021/01/09 00:57:39;;;;;;;;;;;;;;;;;;5046614;28;19925;-75
2021/01/09 01:00:05;;;;;;;;;;;;;;;;;;5043189;28;19924;-75
2021/01/09 01:02:31;;;;;;;;;;;;;;;;;;5038260;28;19932;-74
2021/01/09 01:04:57;;;;;;;;;;;;;;;;;;5039950;28;20374;-76
2021/01/09 01:07:23;;;;;;;;;;;;;;;;;;5045694;28;19959;-74
2021/01/09 01:09:48;;;;;;;;;;;;;;;;;;5044859;28;19974;-74
2021/01/09 01:12:14;;;;;;;;;;;;;;;;;;5044342;28;19932;-74
2021/01/09 01:14:40;;;;;;;;;;;;;;;;;;5045847;28;20266;-74
2021/01/09 01:17:06;;;;;;;;;;;;;;;;;;5034235;28;19940;-73
2021/01/09 01:19:32;;;;;;;;;;;;;;;;;;5046008;28;19929;-75
2021/01/09 01:21:58;;;;;;;;;;;;;;;;;;5054894;28;19924;-75
2021/01/09 01:24:24;;;;;;;;;;;;;;;;;;5065741;28;19925;-74
2021/01/09 01:26:50;;;;;;;;;;;;;;;;;;5063957;28;19925;-75
2021/01/09 01:29:16;;;;;;;;;;;;;;;;;;5064215;28;20645;-75
2021/01/09 01:31:42;;;;;;;;;;;;;;;;;;5062996;28;20041;-76
2021/01/09 01:34:08;;;;;;;;;;;;;;;;;;5036201;28;19925;-75
2021/01/09 01:36:34;;;;;;;;;;;;;;;;;;5054593;28;20293;-75
2021/01/09 01:39:00;;;;;;;;;;;;;;;;;;5061742;28;19924;-76
2021/01/09 01:41:26;;;;;;;;;;;;;;;;;;5065667;28;19925;-75
2021/01/09 01:43:52;;;;;;;;;;;;;;;;;;5063649;28;19924;-75
2021/01/09 01:46:18;;;;;;;;;;;;;;;;;;5064395;28;19928;-75
2021/01/09 01:48:44;;;;;;;;;;;;;;;;;;5039288;28;19925;-75
2021/01/09 01:51:11;;;;;;;;;;;;;;;;;;5042893;28;19932;-75
2021/01/09 01:53:37;;;;;;;;;;;;;;;;;;5045512;28;19972;-75
2021/01/09 01:56:03;;;;;;;;;;;;;;;;;;5042175;28;19928;-75
2021/01/09 01:58:29;;;;;;;;;;;;;;;;;;5046005;28;20015;-75
2021/01/09 02:00:54;;;;;;;;;;;;;;;;;;5050652;28;19924;-75
2021/01/09 02:03:20;;;;;;;;;;;;;;;;;;5057240;28;20297;-75
2021/01/09 02:05:46;;;;;;;;;;;;;;;;;;5067896;28;19932;-75
2021/01/09 02:08:12;;;;;;;;;;;;;;;;;;5066780;28;19978;-75
2021/01/09 02:10:38;;;;;;;;;;;;;;;;;;5068671;28;19935;-75
2021/01/09 02:13:04;;;;;;;;;;;;;;;;;;5065220;28;20708;-74
2021/01/09 02:15:30;;;;;;;;;;;;;;;;;;5068921;28;20394;-74
2021/01/09 02:17:56;;;;;;;;;;;;;;;;;;5056076;28;19924;-75
2021/01/09 02:20:22;;;;;;;;;;;;;;;;;;5047485;28;19929;-75
2021/01/09 02:22:48;;;;;;;;;;;;;;;;;;5046829;28;19928;-75
2021/01/09 02:25:14;;;;;;;;;;;;;;;;;;5058550;28;19928;-75
2021/01/09 02:27:40;;;;;;;;;;;;;;;;;;5068077;28;19924;-76
2021/01/09 02:30:06;;;;;;;;;;;;;;;;;;5065579;28;19931;-74
2021/01/09 02:32:32;;;;;;;;;;;;;;;;;;5068432;28;19926;-77
2021/01/09 02:34:58;;;;;;;;;;;;;;;;;;5037443;28;19932;-75
2021/01/09 02:37:24;;;;;;;;;;;;;;;;;;5048403;28;19925;-75
2021/01/09 02:39:50;;;;;;;;;;;;;;;;;;5046621;28;19932;-75
2021/01/09 02:42:16;;;;;;;;;;;;;;;;;;5046862;28;19925;-75
2021/01/09 02:44:42;;;;;;;;;;;;;;;;;;5047559;28;19975;-75
2021/01/09 02:47:08;;;;;;;;;;;;;;;;;;5045569;28;19924;-75
2021/01/09 02:49:34;;;;;;;;;;;;;;;;;;5039898;28;20390;-75
2021/01/09 02:52:00;;;;;;;;;;;;;;;;;;5044767;28;20023;-76
2021/01/09 02:54:26;;;;;;;;;;;;;;;;;;5048018;28;19932;-75
2021/01/09 02:56:52;;;;;;;;;;;;;;;;;;5046090;28;19932;-74
2021/01/09 02:59:17;;;;;;;;;;;;;;;;;;5046810;28;20270;-75
2021/01/09 03:01:43;;;;;;;;;;;;;;;;;;5047297;28;19925;-74
2021/01/09 03:04:09;;;;;;;;;;;;;;;;;;5045525;28;20316;-74
2021/01/09 03:06:35;;;;;;;;;;;;;;;;;;5052547;28;19924;-74
2021/01/09 03:09:01;;;;;;;;;;;;;;;;;;5064127;28;19928;-74
2021/01/09 03:11:28;;;;;;;;;;;;;;;;;;5068064;28;19932;-74
2021/01/09 03:13:54;;;;;;;;;;;;;;;;;;5064379;28;19924;-74
2021/01/09 03:16:20;;;;;;;;;;;;;;;;;;5066909;28;20447;-74
2021/01/09 03:18:46;;;;;;;;;;;;;;;;;;5066561;28;19924;-75
2021/01/09 03:21:12;;;;;;;;;;;;;;;;;;5044418;28;20671;-74
2021/01/09 03:23:38;;;;;;;;;;;;;;;;;;5057139;28;19928;-74
2021/01/09 03:26:03;;;;;;;;;;;;;;;;;;5064110;28;19931;-75
2021/01/09 03:28:29;;;;;;;;;;;;;;;;;;5067392;28;20289;-74
2021/01/09 03:30:55;;;;;;;;;;;;;;;;;;5064513;28;19925;-74
2021/01/09 03:33:21;;;;;;;;;;;;;;;;;;5066661;28;20400;-74
2021/01/09 03:35:47;;;;;;;;;;;;;;;;;;5048005;28;19925;-75
2021/01/09 03:38:13;;;;;;;;;;;;;;;;;;5045147;28;19925;-75
2021/01/09 03:40:39;;;;;;;;;;;;;;;;;;5047286;28;19950;-75
2021/01/09 03:43:05;;;;;;;;;;;;;;;;;;5043737;28;19925;-74
2021/01/09 03:45:31;;;;;;;;;;;;;;;;;;5047052;28;19924;-74
2021/01/09 03:47:57;;;;;;;;;;;;;;;;;;5044198;28;19925;-74
2021/01/09 03:50:23;;;;;;;;;;;;;;;;;;5046801;28;19948;-74
2021/01/09 03:52:49;;;;;;;;;;;;;;;;;;5051661;28;20381;-75
2021/01/09 03:55:15;;;;;;;;;;;;;;;;;;5065063;28;19931;-75
2021/01/09 03:57:41;;;;;;;;;;;;;;;;;;5066427;28;19931;-74
2021/01/09 04:00:06;;;;;;;;;;;;;;;;;;5063636;28;19970;-75
2021/01/09 04:02:32;;;;;;;;;;;;;;;;;;5063569;28;19931;-75
2021/01/09 04:05:00;;;;;;;;;;;;;;;;;;5062771;28;19935;-74
2021/01/09 04:07:26;;;;;;;;;;;;;;;;;;5054817;28;19924;-74
2021/01/09 04:09:52;;;;;;;;;;;;;;;;;;5064093;28;20370;-74
2021/01/09 04:12:18;;;;;;;;;;;;;;;;;;5065426;28;19932;-76
2021/01/09 04:14:44;;;;;;;;;;;;;;;;;;5065835;28;19996;-74
2021/01/09 04:17:10;;;;;;;;;;;;;;;;;;5064076;28;20310;-74
2021/01/09 04:19:36;;;;;;;;;;;;;;;;;;5066786;28;19924;-74
2021/01/09 04:22:02;;;;;;;;;;;;;;;;;;5051508;28;20751;-74
2021/01/09 04:24:28;;;;;;;;;;;;;;;;;;5046724;28;19936;-74
2021/01/09 04:26:53;;;;;;;;;;;;;;;;;;5043682;28;20007;-74
2021/01/09 04:29:19;;;;;;;;;;;;;;;;;;5045839;28;19924;-75
2021/01/09 04:31:45;;;;;;;;;;;;;;;;;;5045182;28;20279;-74
2021/01/09 04:34:11;;;;;;;;;;;;;;;;;;5043877;28;19951;-75
2021/01/09 04:36:37;;;;;;;;;;;;;;;;;;5046311;28;19928;-74
2021/01/09 04:39:03;;;;;;;;;;;;;;;;;;5034228;28;19932;-75
2021/01/09 04:41:29;;;;;;;;;;;;;;;;;;5046054;28;19924;-74
2021/01/09 04:43:55;;;;;;;;;;;;;;;;;;5043518;28;19925;-74
2021/01/09 04:46:21;;;;;;;;;;;;;;;;;;5045399;28;19925;-74
2021/01/09 04:48:47;;;;;;;;;;;;;;;;;;5044874;28;19925;-74
2021/01/09 04:51:13;;;;;;;;;;;;;;;;;;5043912;28;20158;-74
2021/01/09 04:53:39;;;;;;;;;;;;;;;;;;5037495;28;19925;-74
2021/01/09 04:56:04;;;;;;;;;;;;;;;;;;5042653;28;20674;-75
2021/01/09 04:58:30;;;;;;;;;;;;;;;;;;5046196;28;19932;-74
2021/01/09 05:00:57;;;;;;;;;;;;;;;;;;5043146;28;19925;-75
2021/01/09 05:03:23;;;;;;;;;;;;;;;;;;5045909;28;19960;-75
2021/01/09 05:05:49;;;;;;;;;;;;;;;;;;5044065;28;20301;-75
2021/01/09 05:08:14;;;;;;;;;;;;;;;;;;5044427;28;19975;-75
2021/01/09 05:10:41;;;;;;;;;;;;;;;;;;5037511;28;20281;-76
2021/01/09 05:13:06;;;;;;;;;;;;;;;;;;5042749;28;19939;-74
2021/01/09 05:15:32;;;;;;;;;;;;;;;;;;5045717;28;19925;-74
2021/01/09 05:17:58;;;;;;;;;;;;;;;;;;5042524;28;19936;-73
2021/01/09 05:20:24;;;;;;;;;;;;;;;;;;5051902;28;19924;-73
2021/01/09 05:22:50;;;;;;;;;;;;;;;;;;5063639;28;19970;-76
2021/01/09 05:25:16;;;;;;;;;;;;;;;;;;5051151;28;20778;-75
2021/01/09 05:27:44;;;;;;;;;;;;;;;;;;5045060;28;20378;-75
2021/01/09 05:30:10;;;;;;;;;;;;;;;;;;5043203;28;19931;-75
2021/01/09 05:32:36;;;;;;;;;;;;;;;;;;5046078;28;19925;-75
2021/01/09 05:35:02;;;;;;;;;;;;;;;;;;5042077;28;19924;-74
2021/01/09 05:37:28;;;;;;;;;;;;;;;;;;5048987;28;19928;-75
2021/01/09 05:39:54;;;;;;;;;;;;;;;;;;5040265;28;19932;-75
2021/01/09 05:42:20;;;;;;;;;;;;;;;;;;5046707;28;19928;-75
2021/01/09 05:44:46;;;;;;;;;;;;;;;;;;5050056;28;19924;-75
2021/01/09 05:47:12;;;;;;;;;;;;;;;;;;5048640;28;19925;-74
2021/01/09 05:49:38;;;;;;;;;;;;;;;;;;5052247;28;20301;-74
2021/01/09 05:52:04;;;;;;;;;;;;;;;;;;5051229;28;19932;-74
2021/01/09 05:54:30;;;;;;;;;;;;;;;;;;5050088;28;20286;-74
2021/01/09 05:56:56;;;;;;;;;;;;;;;;;;5037931;28;19929;-75
2021/01/09 05:59:21;;;;;;;;;;;;;;;;;;5048962;28;19925;-75
2021/01/09 06:01:47;;;;;;;;;;;;;;;;;;5048467;28;19982;-75
2021/01/09 06:04:13;;;;;;;;;;;;;;;;;;5049523;28;19931;-72
2021/01/09 06:06:40;;;;;;;;;;;;;;;;;;5049336;28;20386;-72
2021/01/09 06:09:06;;;;;;;;;;;;;;;;;;5046374;28;19985;-74
2021/01/09 06:11:32;;;;;;;;;;;;;;;;;;5043565;28;19978;-73
2021/01/09 06:13:58;;;;;;;;;;;;;;;;;;5066251;28;19932;-74
2021/01/09 06:16:24;;;;;;;;;;;;;;;;;;5069050;28;19932;-75
2021/01/09 06:18:50;;;;;;;;;;;;;;;;;;5067571;28;19924;-75
2021/01/09 06:21:16;;;;;;;;;;;;;;;;;;5067769;28;19924;-72
2021/01/09 06:23:42;;;;;;;;;;;;;;;;;;5068481;28;20343;-73
2021/01/09 06:26:08;;;;;;;;;;;;;;;;;;5066561;28;19924;-73
2021/01/09 06:28:34;;;;;;;;;;;;;;;;;;5044813;28;20290;-73
2021/01/09 06:31:00;;;;;;;;;;;;;;;;;;5045877;28;19924;-74
2021/01/09 06:33:26;;;;;;;;;;;;;;;;;;5049005;28;20298;-74
2021/01/09 06:35:52;;;;;;;;;;;;;;;;;;5047106;28;19932;-73
2021/01/09 06:38:18;;;;;;;;;;;;;;;;;;5047379;28;19925;-74
2021/01/09 06:40:44;;;;;;;;;;;;;;;;;;5047957;28;19929;-75
2021/01/09 06:43:09;;;;;;;;;;;;;;;;;;5039867;28;24603;-74
2021/01/09 06:45:35;;;;;;;;;;;;;;;;;;5068654;28;19931;-74
2021/01/09 06:48:01;;;;;;;;;;;;;;;;;;5063681;28;20375;-74
2021/01/09 06:50:27;;;;;;;;;;;;;;;;;;5068078;28;19924;-74
2021/01/09 06:52:53;;;;;;;;;;;;;;;;;;5065601;28;19932;-74
2021/01/09 06:55:19;;;;;;;;;;;;;;;;;;5067150;28;19932;-74
2021/01/09 06:57:45;;;;;;;;;;;;;;;;;;5067040;28;19954;-75
2021/01/09 07:00:11;;;;;;;;;;;;;;;;;;5054863;28;20297;-74
2021/01/09 07:02:36;;;;;;;;;;;;;;;;;;5068856;28;19924;-76
2021/01/09 07:05:02;;;;;;;;;;;;;;;;;;5065116;28;19970;-74
2021/01/09 07:07:28;;;;;;;;;;;;;;;;;;5068969;28;19936;-74
2021/01/09 07:09:54;;;;;;;;;;;;;;;;;;5065571;28;20046;-73
2021/01/09 07:12:20;;;;;;;;;;;;;;;;;;5066981;28;20285;-75
2021/01/09 07:14:46;;;;;;;;;;;;;;;;;;5062206;28;19932;-73
2021/01/09 07:17:12;;;;;;;;;;;;;;;;;;5043247;28;19939;-74
2021/01/09 07:19:38;;;;;;;;;;;;;;;;;;5067519;28;19928;-74
2021/01/09 07:22:04;;;;;;;;;;;;;;;;;;5064020;28;19972;-73
2021/01/09 07:24:30;;;;;;;;;;;;;;;;;;5067812;28;19925;-74
2021/01/09 07:26:56;;;;;;;;;;;;;;;;;;5064507;28;19924;-73
2021/01/09 07:29:22;;;;;;;;;;;;;;;;;;5066892;28;19931;-74
2021/01/09 07:31:48;;;;;;;;;;;;;;;;;;5048090;28;19933;-74
2021/01/09 07:34:14;;;;;;;;;;;;;;;;;;5045440;28;20364;-73
2021/01/09 07:36:40;;;;;;;;;;;;;;;;;;5047104;28;20289;-73
2021/01/09 07:39:06;;;;;;;;;;;;;;;;;;5043816;28;19924;-73
2021/01/09 07:41:32;;;;;;;;;;;;;;;;;;5047166;28;19925;-74
2021/01/09 07:43:58;;;;;;;;;;;;;;;;;;5042413;28;19928;-74
2021/01/09 07:46:24;;;;;;;;;;;;;;;;;;5047113;28;19932;-74
2021/01/09 07:48:50;;;;;;;;;;;;;;;;;;5036617;28;19924;-74
2021/01/09 07:51:16;;;;;;;;;;;;;;;;;;5045455;28;19924;-74
2021/01/09 07:53:42;;;;;;;;;;;;;;;;;;5046683;28;19925;-74
2021/01/09 07:56:08;;;;;;;;;;;;;;;;;;5043927;28;20341;-74
2021/01/09 07:58:33;;;;;;;;;;;;;;;;;;5046651;28;19932;-73
2021/01/09 08:00:59;;;;;;;;;;;;;;;;;;5039740;28;20675;-73
2021/01/09 08:03:25;;;;;;;;;;;;;;;;;;5045580;28;19924;-73
2021/01/09 08:05:51;;;;;;;;;;;;;;;;;;5064899;28;20392;-75
2021/01/09 08:08:17;;;;;;;;;;;;;;;;;;5047619;28;19925;-73
2021/01/09 08:10:43;;;;;;;;;;;;;;;;;;5049849;28;20327;-74
2021/01/09 08:13:09;;;;;;;;;;;;;;;;;;5063673;28;19931;-74
2021/01/09 08:15:35;;;;;;;;;;;;;;;;;;5066399;28;19924;-76
2021/01/09 08:18:01;;;;;;;;;;;;;;;;;;5051503;28;19940;-74
2021/01/09 08:20:27;;;;;;;;;;;;;;;;;;5067178;28;19978;-73
2021/01/09 08:22:53;;;;;;;;;;;;;;;;;;5063884;28;19928;-74
2021/01/09 08:25:19;;;;;;;;;;;;;;;;;;5065693;28;19924;-74
2021/01/09 08:27:45;;;;;;;;;;;;;;;;;;5065184;28;19932;-74
2021/01/09 08:30:11;;;;;;;;;;;;;;;;;;5063836;28;19924;-73
2021/01/09 08:32:37;;;;;;;;;;;;;;;;;;5066463;28;19924;-74
2021/01/09 08:35:03;;;;;;;;;;;;;;;;;;5034369;28;20337;-73
2021/01/09 08:37:29;;;;;;;;;;;;;;;;;;5046538;28;19929;-74
2021/01/09 08:39:55;;;;;;;;;;;;;;;;;;5043190;28;19925;-73
2021/01/09 08:42:21;;;;;;;;;;;;;;;;;;5045820;28;19929;-73
2021/01/09 08:44:47;;;;;;;;;;;;;;;;;;5045061;28;19925;-73
2021/01/09 08:47:13;;;;;;;;;;;;;;;;;;5044256;28;19931;-73
2021/01/09 08:49:39;;;;;;;;;;;;;;;;;;5043003;28;19928;-74
2021/01/09 08:52:05;;;;;;;;;;;;;;;;;;5063005;28;19974;-74
2021/01/09 08:54:31;;;;;;;;;;;;;;;;;;5066100;28;19947;-74
2021/01/09 08:56:57;;;;;;;;;;;;;;;;;;5063054;28;20289;-73
2021/01/09 08:59:23;;;;;;;;;;;;;;;;;;5065826;28;20453;-73
2021/01/09 09:01:49;;;;;;;;;;;;;;;;;;5064186;28;19935;-75
2021/01/09 09:04:14;;;;;;;;;;;;;;;;;;5051635;28;19932;-73
2021/01/09 09:06:40;;;;;;;;;;;;;;;;;;5045646;28;19977;-73
2021/01/09 09:09:06;;;;;;;;;;;;;;;;;;5042767;28;19932;-73
2021/01/09 09:11:32;;;;;;;;;;;;;;;;;;5047868;28;19932;-73
2021/01/09 09:13:58;;;;;;;;;;;;;;;;;;5047291;28;19929;-74
2021/01/09 09:16:24;;;;;;;;;;;;;;;;;;5070163;28;19983;-74
2021/01/09 09:18:50;;;;;;;;;;;;;;;;;;5068770;28;19924;-73
2021/01/09 09:21:16;;;;;;;;;;;;;;;;;;5057761;28;20124;-73
2021/01/09 09:23:42;;;;;;;;;;;;;;;;;;5069148;28;19973;-75
2021/01/09 09:26:07;;;;;;;;;;;;;;;;;;5066693;28;19978;-73
2021/01/09 09:28:33;;;;;;;;;;;;;;;;;;5069959;28;19932;-73
2021/01/09 09:30:59;;;;;;;;;;;;;;;;;;5066366;28;19925;-75
2021/01/09 09:33:27;;;;;;;;;;;;;;;;;;5070138;28;19924;-75
2021/01/09 09:35:53;;;;;;;;;;;;;;;;;;5059656;28;19975;-74
2021/01/09 09:38:19;;;;;;;;;;;;;;;;;;5066060;28;19924;-75
2021/01/09 09:40:45;;;;;;;;;;;;;;;;;;5068379;28;19924;-74
2021/01/09 09:43:11;;;;;;;;;;;;;;;;;;5067169;28;19925;-74
2021/01/09 09:45:37;;;;;;;;;;;;;;;;;;5069711;28;19925;-74
2021/01/09 09:48:03;;;;;;;;;;;;;;;;;;5065913;28;20671;-74
2021/01/09 09:50:28;;;;;;;;;;;;;;;;;;5069551;28;19928;-74
2021/01/09 09:52:54;;;;;;;;;;;;;;;;;;5055578;28;19925;-74
2021/01/09 09:55:20;;;;;;;;;;;;;;;;;;5068870;28;20011;-74
2021/01/09 09:57:46;;;;;;;;;;;;;;;;;;5067930;28;19928;-75
2021/01/09 10:00:12;;;;;;;;;;;;;;;;;;5067571;28;19924;-74
2021/01/09 10:02:38;;;;;;;;;;;;;;;;;;5069474;28;20282;-75
2021/01/09 10:05:04;;;;;;;;;;;;;;;;;;5065804;28;19929;-75
2021/01/09 10:07:30;;;;;;;;;;;;;;;;;;5053531;28;20289;-74
2021/01/09 10:09:55;;;;;;;;;;;;;;;;;;5045902;28;19924;-75
2021/01/09 10:12:21;;;;;;;;;;;;;;;;;;5048766;28;19928;-75
2021/01/09 10:14:47;;;;;;;;;;;;;;;;;;5065393;28;20324;-75
2021/01/09 10:17:13;;;;;;;;;;;;;;;;;;5067263;28;19928;-74
2021/01/09 10:19:39;;;;;;;;;;;;;;;;;;5068805;28;20386;-74
2021/01/09 10:22:05;;;;;;;;;;;;;;;;;;5053861;28;19938;-75
2021/01/09 10:24:31;;;;;;;;;;;;;;;;;;5069043;28;19924;-74
2021/01/09 10:26:57;;;;;;;;;;;;;;;;;;5065603;28;20332;-76
2021/01/09 10:29:23;;;;;;;;;;;;;;;;;;5068173;28;19924;-73
2021/01/09 10:31:48;;;;;;;;;;;;;;;;;;5067130;28;19936;-73
2021/01/09 10:34:14;;;;;;;;;;;;;;;;;;5067249;28;19981;-73
2021/01/09 10:36:40;;;;;;;;;;;;;;;;;;5068033;28;19924;-73
2021/01/09 10:39:06;;;;;;;;;;;;;;;;;;5038904;28;20318;-73
2021/01/09 10:41:32;;;;;;;;;;;;;;;;;;5048824;28;19924;-73
2021/01/09 10:43:58;;;;;;;;;;;;;;;;;;5045493;28;19939;-75
2021/01/09 10:46:25;;;;;;;;;;;;;;;;;;5049207;28;19926;-75
2021/01/09 10:48:51;;;;;;;;;;;;;;;;;;5046971;28;20373;-76
2021/01/09 10:51:17;;;;;;;;;;;;;;;;;;5060663;28;20317;-73
2021/01/09 10:53:43;;;;;;;;;;;;;;;;;;5056269;28;20430;-73
2021/01/09 10:56:09;;;;;;;;;;;;;;;;;;5065760;28;19925;-73
2021/01/09 10:58:35;;;;;;;;;;;;;;;;;;5068323;28;20301;-74
2021/01/09 11:01:01;;;;;;;;;;;;;;;;;;5064981;28;20463;-72
2021/01/09 11:03:26;;;;;;;;;;;;;;;;;;5068429;28;20025;-73
2021/01/09 11:05:52;;;;;;;;;;;;;;;;;;5065586;28;20069;-73
2021/01/09 11:08:18;;;;;;;;;;;;;;;;;;5052625;28;20527;-73
2021/01/09 11:10:44;;;;;;;;;;;;;;;;;;5047094;28;19925;-73
2021/01/09 11:13:10;;;;;;;;;;;;;;;;;;5060917;28;19925;-73
2021/01/09 11:15:36;;;;;;;;;;;;;;;;;;5067880;28;19931;-73
2021/01/09 11:18:02;;;;;;;;;;;;;;;;;;5064338;28;20314;-75
2021/01/09 11:20:28;;;;;;;;;;;;;;;;;;5067621;28;20373;-75
2021/01/09 11:22:54;;;;;;;;;;;;;;;;;;5056416;28;19931;-74
2021/01/09 11:25:19;;;;;;;;;;;;;;;;;;5064134;28;19928;-75
2021/01/09 11:27:45;;;;;;;;;;;;;;;;;;5066312;28;19925;-74
2021/01/09 11:30:11;;;;;;;;;;;;;;;;;;5065041;28;19925;-75
2021/01/09 11:32:37;;;;;;;;;;;;;;;;;;5067457;28;19989;-74
2021/01/09 11:35:03;;;;;;;;;;;;;;;;;;5063225;28;19931;-74
2021/01/09 11:37:29;;;;;;;;;;;;;;;;;;5067496;28;20320;-74
2021/01/09 11:39:55;;;;;;;;;;;;;;;;;;5053251;28;19928;-74
2021/01/09 11:42:21;;;;;;;;;;;;;;;;;;5066562;28;19978;-73
2021/01/09 11:44:47;;;;;;;;;;;;;;;;;;5065585;28;19928;-73
2021/01/09 11:47:13;;;;;;;;;;;;;;;;;;5065112;28;20017;-73
2021/01/09 11:49:39;;;;;;;;;;;;;;;;;;5066938;28;20301;-73
2021/01/09 11:52:05;;;;;;;;;;;;;;;;;;5063316;28;20381;-76
2021/01/09 11:54:31;;;;;;;;;;;;;;;;;;5055806;28;19924;-73
2021/01/09 11:56:57;;;;;;;;;;;;;;;;;;5063502;28;19924;-74
2021/01/09 11:59:22;;;;;;;;;;;;;;;;;;5066706;28;19924;-74
2021/01/09 12:01:48;;;;;;;;;;;;;;;;;;5065056;28;20293;-73
2021/01/09 12:04:14;;;;;;;;;;;;;;;;;;5064677;28;19933;-73
2021/01/09 12:06:40;;;;;;;;;;;;;;;;;;5066319;28;19947;-73
2021/01/09 12:09:06;;;;;;;;;;;;;;;;;;5063642;28;19932;-73
2021/01/09 12:11:32;;;;;;;;;;;;;;;;;;5042611;28;20426;-74
2021/01/09 12:13:58;;;;;;;;;;;;;;;;;;5062642;28;19931;-73
2021/01/09 12:16:24;;;;;;;;;;;;;;;;;;5066642;28;19924;-73
2021/01/09 12:18:49;;;;;;;;;;;;;;;;;;5064498;28;19924;-73
2021/01/09 12:21:15;;;;;;;;;;;;;;;;;;5064835;28;19960;-75
2021/01/09 12:23:41;;;;;;;;;;;;;;;;;;5065782;28;19924;-75
2021/01/09 12:26:07;;;;;;;;;;;;;;;;;;5051132;28;19945;-74
2021/01/09 12:28:33;;;;;;;;;;;;;;;;;;5046565;28;20329;-74
2021/01/09 12:30:59;;;;;;;;;;;;;;;;;;5042766;28;19956;-74
2021/01/09 12:33:25;;;;;;;;;;;;;;;;;;5046354;28;19932;-74
2021/01/09 12:35:51;;;;;;;;;;;;;;;;;;5044546;28;19925;-74
2021/01/09 12:38:17;;;;;;;;;;;;;;;;;;5044825;28;19925;-74
2021/01/09 12:40:42;;;;;;;;;;;;;;;;;;5045722;28;19924;-74
2021/01/09 12:43:08;;;;;;;;;;;;;;;;;;5034717;28;20770;-74
2021/01/09 12:45:34;;;;;;;;;;;;;;;;;;5045532;28;19932;-73
2021/01/09 12:48:00;;;;;;;;;;;;;;;;;;5042538;28;20436;-74
2021/01/09 12:50:26;;;;;;;;;;;;;;;;;;5046366;28;19947;-74
2021/01/09 12:52:52;;;;;;;;;;;;;;;;;;5044220;28;20404;-74
2021/01/09 12:55:18;;;;;;;;;;;;;;;;;;5045680;28;19932;-73
2021/01/09 12:57:44;;;;;;;;;;;;;;;;;;5036756;28;19924;-74
2021/01/09 13:00:10;;;;;;;;;;;;;;;;;;5043510;28;19932;-74
2021/01/09 13:02:36;;;;;;;;;;;;;;;;;;5046202;28;20401;-75
2021/01/09 13:05:02;;;;;;;;;;;;;;;;;;5045486;28;19924;-74
2021/01/09 13:07:28;;;;;;;;;;;;;;;;;;5053876;28;20060;-75
2021/01/09 13:09:53;;;;;;;;;;;;;;;;;;5064209;28;19924;-74
2021/01/09 13:12:19;;;;;;;;;;;;;;;;;;5054571;28;19932;-74
2021/01/09 13:14:45;;;;;;;;;;;;;;;;;;5046166;28;19925;-75
2021/01/09 13:17:12;;;;;;;;;;;;;;;;;;5045225;28;19924;-74
2021/01/09 13:19:38;;;;;;;;;;;;;;;;;;5046439;28;19932;-74
2021/01/09 13:22:04;;;;;;;;;;;;;;;;;;5042448;28;19928;-74
2021/01/09 13:24:30;;;;;;;;;;;;;;;;;;5046418;28;19924;-74
2021/01/09 13:26:58;;;;;;;;;;;;;;;;;;5043295;28;19931;-74
2021/01/09 13:29:24;;;;;;;;;;;;;;;;;;5037727;28;19931;-74
2021/01/09 13:31:50;;;;;;;;;;;;;;;;;;5044369;28;19924;-73
2021/01/09 13:34:15;;;;;;;;;;;;;;;;;;5045147;28;19928;-76
2021/01/09 13:36:41;;;;;;;;;;;;;;;;;;5045589;28;20270;-73
2021/01/09 13:39:07;;;;;;;;;;;;;;;;;;5043291;28;19931;-73
2021/01/09 13:41:33;;;;;;;;;;;;;;;;;;5046508;28;19925;-72
2021/01/09 13:43:59;;;;;;;;;;;;;;;;;;5036974;28;19960;-73
2021/01/09 13:46:27;;;;;;;;;;;;;;;;;;5066280;28;19974;-73
2021/01/09 13:48:53;;;;;;;;;;;;;;;;;;5063932;28;19936;-73
2021/01/09 13:51:19;;;;;;;;;;;;;;;;;;5065083;28;19928;-73
2021/01/09 13:53:45;;;;;;;;;;;;;;;;;;5065418;28;19924;-73
2021/01/09 13:56:11;;;;;;;;;;;;;;;;;;5064319;28;20092;-74
2021/01/09 13:58:37;;;;;;;;;;;;;;;;;;5069278;28;19973;-74
2021/01/09 14:01:03;;;;;;;;;;;;;;;;;;5038839;28;20352;-74
2021/01/09 14:03:29;;;;;;;;;;;;;;;;;;5049692;28;19929;-73
2021/01/09 14:05:55;;;;;;;;;;;;;;;;;;5046809;28;19925;-73
2021/01/09 14:08:20;;;;;;;;;;;;;;;;;;5059437;28;19948;-74
2021/01/09 14:10:46;;;;;;;;;;;;;;;;;;5068196;28;19970;-74
2021/01/09 14:13:12;;;;;;;;;;;;;;;;;;5064180;28;20349;-73
2021/01/09 14:15:38;;;;;;;;;;;;;;;;;;5058135;28;19932;-73
2021/01/09 14:18:04;;;;;;;;;;;;;;;;;;5065513;28;19928;-73
2021/01/09 14:20:30;;;;;;;;;;;;;;;;;;5068911;28;19931;-73
2021/01/09 14:22:56;;;;;;;;;;;;;;;;;;5065942;28;19925;-73
2021/01/09 14:25:22;;;;;;;;;;;;;;;;;;5068873;28;19924;-74
2021/01/09 14:27:48;;;;;;;;;;;;;;;;;;5068083;28;19932;-75
2021/01/09 14:30:14;;;;;;;;;;;;;;;;;;5054513;28;19960;-75
2021/01/09 14:32:40;;;;;;;;;;;;;;;;;;5049204;28;19925;-74
2021/01/09 14:35:06;;;;;;;;;;;;;;;;;;5045859;28;19925;-75
2021/01/09 14:37:32;;;;;;;;;;;;;;;;;;5049457;28;19925;-73
2021/01/09 14:39:58;;;;;;;;;;;;;;;;;;5045641;28;19924;-73
2021/01/09 14:42:24;;;;;;;;;;;;;;;;;;5049460;28;19974;-73
2021/01/09 14:44:50;;;;;;;;;;;;;;;;;;5047176;28;19925;-74
2021/01/09 14:47:16;;;;;;;;;;;;;;;;;;5050161;28;19932;-75
2021/01/09 14:49:42;;;;;;;;;;;;;;;;;;5068461;28;20352;-74
2021/01/09 14:52:12;;;;;;;;;;;;;;;;;;5065694;28;19936;-74
2021/01/09 14:54:38;;;;;;;;;;;;;;;;;;5068503;28;19925;-74
2021/01/09 14:57:04;;;;;;;;;;;;;;;;;;5064987;28;19932;-74
2021/01/09 14:59:30;;;;;;;;;;;;;;;;;;5068188;28;19925;-73
2021/01/09 15:01:56;;;;;;;;;;;;;;;;;;5056543;28;19931;-74
2021/01/09 15:04:22;;;;;;;;;;;;;;;;;;5047025;28;20311;-73
2021/01/09 15:06:47;;;;;;;;;;;;;;;;;;5056410;28;19931;-74
2021/01/09 15:09:13;;;;;;;;;;;;;;;;;;5065366;28;19946;-74
2021/01/09 15:11:39;;;;;;;;;;;;;;;;;;5068131;28;19932;-73
2021/01/09 15:14:05;;;;;;;;;;;;;;;;;;5064378;28;19924;-74
2021/01/09 15:16:31;;;;;;;;;;;;;;;;;;5067968;28;19925;-76
2021/01/09 15:19:17;;;;;;;;;;;;;;;;;;5045284;28;19993;-73
2021/01/09 15:21:43;;;;;;;;;;;;;;;;;;5046654;28;19925;-73
2021/01/09 15:24:09;;;;;;;;;;;;;;;;;;5045101;28;19925;-73
2021/01/09 15:26:35;;;;;;;;;;;;;;;;;;5047501;28;19932;-73
2021/01/09 15:29:01;;;;;;;;;;;;;;;;;;5043821;28;19986;-74
2021/01/09 15:31:27;;;;;;;;;;;;;;;;;;5047831;28;19932;-73
2021/01/09 15:33:53;;;;;;;;;;;;;;;;;;5039407;28;20393;-75
2021/01/09 15:36:19;;;;;;;;;;;;;;;;;;5044626;28;19979;-73
2021/01/09 15:38:45;;;;;;;;;;;;;;;;;;5046135;28;19925;-73
2021/01/09 15:41:11;;;;;;;;;;;;;;;;;;5045086;28;19931;-73
2021/01/09 15:43:37;;;;;;;;;;;;;;;;;;5047423;28;19947;-73
2021/01/09 15:46:02;;;;;;;;;;;;;;;;;;5044160;28;20247;-74
2021/01/09 15:48:28;;;;;;;;;;;;;;;;;;5048320;28;19932;-74
2021/01/09 15:50:54;;;;;;;;;;;;;;;;;;5037917;28;19927;-73
2021/01/09 15:53:20;;;;;;;;;;;;;;;;;;5048099;28;19928;-74
2021/01/09 15:55:46;;;;;;;;;;;;;;;;;;5046488;28;19925;-72
2021/01/09 15:58:12;;;;;;;;;;;;;;;;;;5045175;28;19924;-73
2021/01/09 16:00:38;;;;;;;;;;;;;;;;;;5046932;28;20590;-73
2021/01/09 16:03:04;;;;;;;;;;;;;;;;;;5043180;28;19992;-74
2021/01/09 16:05:30;;;;;;;;;;;;;;;;;;5046530;28;19932;-73
2021/01/09 16:07:55;;;;;;;;;;;;;;;;;;5063919;28;19928;-73
2021/01/09 16:10:21;;;;;;;;;;;;;;;;;;5066201;28;19924;-73
2021/01/09 16:12:47;;;;;;;;;;;;;;;;;;5065188;28;19925;-73
2021/01/09 16:15:14;;;;;;;;;;;;;;;;;;5061818;28;19932;-73
2021/01/09 16:17:40;;;;;;;;;;;;;;;;;;5066435;28;20301;-74
2021/01/09 16:20:06;;;;;;;;;;;;;;;;;;5050240;28;20317;-73
2021/01/09 16:22:32;;;;;;;;;;;;;;;;;;5046379;28;19925;-73
2021/01/09 16:24:58;;;;;;;;;;;;;;;;;;5043166;28;19924;-73
2021/01/09 16:27:24;;;;;;;;;;;;;;;;;;5046311;28;19929;-73
2021/01/09 16:29:50;;;;;;;;;;;;;;;;;;5044615;28;19924;-75
2021/01/09 16:32:19;;;;;;;;;;;;;;;;;;5044960;28;19993;-74
2021/01/09 16:34:45;;;;;;;;;;;;;;;;;;5045498;28;19925;-75
2021/01/09 16:37:11;;;;;;;;;;;;;;;;;;5035852;28;19986;-74